KAIK/AIK METAR and TAF weather

Enter ICAO airport designator
Station Type Date Time Source
KAIK METAR 2019/06/17 06:55 UTC NOAA

KAIK 170655Z AUTO 17006KT 10SM CLR 22/22 A3008 RMK AO2


Station Type Date Time Source
KAIK Decoded METAR 2019/06/17 06:55 UTC NOAA

Station name not available
Jun 17, 2019 - 02:55 AM EDT / 2019.06.17 0655 UTC
Wind: from the S (170 degrees) at 7 MPH (6 KT):0
Visibility: 10 mile(s):0
Sky conditions: clear
Temperature: 71 F (22 C)
Dew Point: 71 F (22 C)
Relative Humidity: 100%
Pressure (altimeter): 30.08 in. Hg (1018 hPa)
ob: KAIK 170655Z AUTO 17006KT 10SM CLR 22/22 A3008 RMK AO2
cycle: 7

Station Type Date Time Source
KAIK TAF UTC NOAA

Error!

Example: see airport list